Sainte-Agathe, Canada
Current Conditions -  °F | °C
As of 5:00 AM on Thursday 29 Jan 2015 (Local Time) from CYMX Reporting Station
Few Clouds Few Clouds  
Wind Chill: -2°   Ceiling: Unl
Heat Index: -2°   Visibility: 25mi
Dew Point: -9°   Wind: 3mph
Humidity: 71%   Direction: 270°W
Pressure: 30.28"   Gusts: NA
Location:  46.03°N, 74.28°W
Report Text: CYMX 291000Z 27003KT 25SM FEW230 M19/M23 A3028 RMK CI1 SLP262
Loading
Personal Weather Stations






























Interactive Weather Map New forecast layout! Learn more

10-Day Weather Forecast

Advertisements
Track Severe Weather on mobile